Pago Pago, AS (96799)

12:34 AM SST on December 09, 2016 (GMT -1100)
Malaeimi | | Change Station

Elev 217 ft 14.32 °S, 170.74 °W | Updated 4 minutes ago

Mostly Cloudy
Mostly Cloudy
80.0 °F
Feels Like 85 °F
N
2.0
Wind Variable Wind from WNW
Gusts 2.0 mph

Today
High -- | Low -- °F
--% Chance of Precip.
Yesterday
High -- | Low -- °F
Precip. -- in
Pressure 29.92 in
Visibility 10.0 miles
Clouds Overcast 2500 ft
Heat Index 85 °F
Dew Point 76 °F
Humidity 89%
Rainfall 0.00 in
Snow Depth Not available.
5:46 AM 6:44 PM
Waxing Gibbous, 73% visible
METAR PHKO 091053Z AUTO 07006KT 10SM OVC025 22/22 A2992 RMK AO2 RAE40 SLP132 P0002 T02220222 TSNO
Pressure 29.92 in
Visibility 10.0 miles
Clouds Overcast 2500 ft
Heat Index 85 °F
Dew Point 76 °F
Humidity 89%
Rainfall 0.00 in
Snow Depth Not available.
5:46 AM 6:44 PM
Waxing Gibbous, 73% visible
METAR PHKO 091053Z AUTO 07006KT 10SM OVC025 22/22 A2992 RMK AO2 RAE40 SLP132 P0002 T02220222 TSNO

10-Day Weather Forecast

No radar image for this location.
×

Almanac

Astronomy

Dec. 09, 2016 Rise Set
Actual Time
Civil Twilight
Nautical Twilight
Astronomical Twilight
Moon
Length of Visible Light
Length of Day
Tomorrow will be .
, % of the Moon is Illuminated

Today's Extremes

State Highs State Lows

Community

WunderPhotos

Upload Photos

1,956,378 photos uploaded!

WunderBlog® & News

Nearby

Air Quality

  Air Quality AQ Index Pollutant
Not available.

Snow Depth

Station Depth Elevation

Earthquake Activity

City Distance Mag. Time & Date
Minimum magnitude displayed is 2.5.

Coastal Water Temperatures

Place Temperature

Stations

Nearby Weather Stations

Station Location Temp. Windchill Dew Point Humidity Wind Precip. Elev Updated Type
                   

Watches & Warnings

There are currently no watches in effect.